Aviation Digital Data Service (ADDS)

Output produced by METARs form (0141 UTC 20 April 2014)
found at http://aviationweather.gov/adds/metars/
 
KHPN 192345Z 2000/2024 36009KT P6SM BKN250 
     FM200300 03008KT P6SM BKN250 
     FM201300 07008KT P6SM SKC 
     FM201700 12010KT P6SM SKC 
     FM202300 13007KT P6SM SKC AMD NOT SKED